createdAt,value
2019-03-11T00:03:19.014Z,9.15
2019-03-11T00:08:21.486Z,9.14
2019-03-11T00:13:23.937Z,9.08
2019-03-11T00:18:26.405Z,8.99
2019-03-11T00:23:28.873Z,8.86
2019-03-11T00:28:31.328Z,8.90
2019-03-11T00:33:33.779Z,8.87
2019-03-11T00:38:36.267Z,8.87
2019-03-11T00:43:38.721Z,8.84
2019-03-11T00:48:41.773Z,8.83
2019-03-11T00:53:44.257Z,8.83
2019-03-11T00:58:47.980Z,8.89
2019-03-11T01:03:49.190Z,8.88
2019-03-11T01:08:51.778Z,8.93
2019-03-11T01:13:54.242Z,9.03
2019-03-11T01:18:56.742Z,9.00
2019-03-11T01:23:59.198Z,8.89
2019-03-11T01:29:01.676Z,8.79
2019-03-11T01:34:04.149Z,8.83
2019-03-11T01:39:06.602Z,9.04
2019-03-11T01:44:09.150Z,9.02
2019-03-11T01:49:11.640Z,9.01
2019-03-11T01:54:14.109Z,8.89
2019-03-11T01:59:16.599Z,8.84
2019-03-11T02:04:19.053Z,8.83
2019-03-11T02:09:21.525Z,8.91
2019-03-11T02:14:24.008Z,8.93
2019-03-11T02:19:26.415Z,8.87
2019-03-11T02:24:28.978Z,8.84
2019-03-11T02:29:31.454Z,8.77
2019-03-11T02:34:33.931Z,8.76
2019-03-11T02:39:36.399Z,8.75
2019-03-11T02:44:38.866Z,8.76
2019-03-11T02:49:44.016Z,8.74
2019-03-11T02:54:43.800Z,8.76
2019-03-11T02:59:46.261Z,8.83
2019-03-11T03:04:48.769Z,8.78
2019-03-11T03:09:51.256Z,8.75
2019-03-11T03:14:53.698Z,8.81
2019-03-11T03:19:56.201Z,8.86
2019-03-11T03:24:58.662Z,8.89
2019-03-11T03:30:01.118Z,8.92
2019-03-11T03:35:03.581Z,9.01
2019-03-11T03:40:06.071Z,9.05
2019-03-11T03:45:26.889Z,9.11
2019-03-11T03:50:29.366Z,9.11
2019-03-11T03:55:31.841Z,9.16
2019-03-11T04:00:34.328Z,9.12
2019-03-11T04:05:36.770Z,9.10
2019-03-11T04:10:39.241Z,9.07
2019-03-11T04:15:41.718Z,9.12
2019-03-11T04:20:44.214Z,9.18
2019-03-11T04:25:46.680Z,9.26
2019-03-11T04:30:49.128Z,9.36
2019-03-11T04:35:51.602Z,9.38
2019-03-11T04:40:54.067Z,9.38
2019-03-11T04:45:56.528Z,9.43
2019-03-11T04:50:58.982Z,8.88
2019-03-11T04:56:01.475Z,8.47
2019-03-11T05:01:03.901Z,8.35
2019-03-11T05:06:06.350Z,8.21
2019-03-11T05:11:08.826Z,8.07
2019-03-11T05:16:11.308Z,8.02
2019-03-11T05:21:13.763Z,7.90
2019-03-11T05:26:16.211Z,7.77
2019-03-11T05:31:18.670Z,7.73
2019-03-11T05:36:21.148Z,7.60
2019-03-11T05:41:23.586Z,7.43
2019-03-11T05:46:26.079Z,7.43
2019-03-11T05:51:31.921Z,7.49
2019-03-11T05:56:31.002Z,7.55
2019-03-11T06:01:33.495Z,7.62
2019-03-11T06:06:35.950Z,7.67
2019-03-11T06:11:38.396Z,7.68
2019-03-11T06:16:40.859Z,7.74
2019-03-11T06:21:46.207Z,7.70
2019-03-11T06:26:48.663Z,7.70
2019-03-11T06:31:51.157Z,7.86
2019-03-11T06:36:53.623Z,7.89
2019-03-11T06:41:56.073Z,7.92
2019-03-11T06:46:58.550Z,8.00
2019-03-11T06:52:03.494Z,7.96
2019-03-11T06:57:03.485Z,8.01
2019-03-11T07:02:05.952Z,8.21
2019-03-11T07:07:08.412Z,8.26
2019-03-11T07:12:10.863Z,8.17
2019-03-11T07:17:13.316Z,8.47
2019-03-11T07:22:15.775Z,9.12
2019-03-11T07:27:18.247Z,8.99
2019-03-11T07:32:20.717Z,9.02
2019-03-11T07:37:23.252Z,9.43
2019-03-11T07:42:25.641Z,10.07
2019-03-11T07:47:28.098Z,11.03
2019-03-11T07:52:30.565Z,13.51
2019-03-11T07:57:33.046Z,17.95
2019-03-11T08:02:35.606Z,24.56
2019-03-11T08:07:38.082Z,20.93
2019-03-11T08:12:40.551Z,21.40
2019-03-11T08:17:43.030Z,17.84
2019-03-11T08:22:45.492Z,14.61
2019-03-11T08:27:47.956Z,14.39
2019-03-11T08:32:50.433Z,14.04
2019-03-11T08:37:55.250Z,11.81
2019-03-11T08:42:57.720Z,12.04
2019-03-11T08:48:00.255Z,17.86
2019-03-11T08:53:02.675Z,18.56
2019-03-11T08:58:05.148Z,31.11
2019-03-11T09:03:07.616Z,29.00
2019-03-11T09:08:10.079Z,24.17
2019-03-11T09:13:12.551Z,18.08
2019-03-11T09:18:15.029Z,16.14
2019-03-11T09:23:17.509Z,15.12
2019-03-11T09:28:19.990Z,14.60
2019-03-11T09:33:22.442Z,14.60
2019-03-11T09:38:24.920Z,13.90
2019-03-11T09:43:27.421Z,14.44
2019-03-11T09:48:29.867Z,15.94
2019-03-11T09:53:32.348Z,14.95
2019-03-11T09:58:34.812Z,13.59
2019-03-11T10:03:37.283Z,13.77
2019-03-11T10:08:39.750Z,14.76
2019-03-11T10:13:42.223Z,15.24
2019-03-11T10:18:44.695Z,16.43
2019-03-11T10:23:47.156Z,17.39
2019-03-11T10:28:49.605Z,16.15
2019-03-11T10:33:52.072Z,17.21
2019-03-11T10:38:54.528Z,15.02
2019-03-11T10:43:56.998Z,14.37
2019-03-11T10:48:59.457Z,13.43
2019-03-11T10:54:01.936Z,15.38
2019-03-11T10:59:04.405Z,14.89
2019-03-11T11:04:06.865Z,14.25
2019-03-11T11:09:09.331Z,13.55
2019-03-11T11:14:11.835Z,12.99
2019-03-11T11:19:14.314Z,13.02
2019-03-11T11:24:16.792Z,14.08
2019-03-11T11:29:19.265Z,17.05
2019-03-11T11:34:21.722Z,18.68
2019-03-11T11:39:24.173Z,17.42
2019-03-11T11:44:26.651Z,15.52
2019-03-11T11:49:29.112Z,14.47
2019-03-11T11:54:31.600Z,13.45
2019-03-11T11:59:34.034Z,13.25
2019-03-11T12:04:36.553Z,12.66
2019-03-11T12:09:39.091Z,12.43
2019-03-11T12:14:41.514Z,11.95
2019-03-11T12:19:44.003Z,11.73
2019-03-11T12:24:46.488Z,11.76
2019-03-11T12:29:49.019Z,11.60
2019-03-11T12:34:51.493Z,13.76
2019-03-11T12:39:53.963Z,13.94
2019-03-11T12:44:56.448Z,13.66
2019-03-11T12:49:58.935Z,13.57
2019-03-11T12:55:01.441Z,12.65
2019-03-11T13:00:03.906Z,12.40
2019-03-11T13:05:06.418Z,12.53
2019-03-11T13:10:24.132Z,12.60
2019-03-11T13:15:26.599Z,12.76
2019-03-11T13:20:29.098Z,12.45
2019-03-11T13:25:31.563Z,12.69
2019-03-11T13:30:34.035Z,12.21
2019-03-11T13:35:36.487Z,12.96
2019-03-11T13:40:39.054Z,13.06
2019-03-11T13:45:41.487Z,12.80
2019-03-11T13:50:43.973Z,12.34
2019-03-11T13:55:47.042Z,12.92
2019-03-11T14:00:56.767Z,12.39
2019-03-11T14:05:51.555Z,11.96
2019-03-11T14:10:54.029Z,11.72
2019-03-11T14:15:57.100Z,11.67
2019-03-11T14:20:59.129Z,11.79
2019-03-11T14:26:01.632Z,11.55
2019-03-11T14:31:04.126Z,11.64
2019-03-11T14:36:06.616Z,11.39
2019-03-11T14:41:09.092Z,11.57
2019-03-11T14:46:11.574Z,11.20
2019-03-11T14:51:14.044Z,11.41
2019-03-11T14:56:16.504Z,11.13
2019-03-11T15:01:18.980Z,11.47
2019-03-11T15:06:21.487Z,12.09
2019-03-11T15:11:23.947Z,12.13
2019-03-11T15:16:26.435Z,11.99
2019-03-11T15:21:28.939Z,11.79
2019-03-11T15:26:31.430Z,11.64
2019-03-11T15:31:33.914Z,11.36
2019-03-11T15:36:36.434Z,11.36
2019-03-11T15:41:38.916Z,12.35
2019-03-11T15:46:41.396Z,13.28
2019-03-11T15:51:43.875Z,12.75
2019-03-11T15:56:46.358Z,11.59
2019-03-11T16:01:48.843Z,11.05
2019-03-11T16:06:51.312Z,10.64
2019-03-11T16:11:53.808Z,10.60
2019-03-11T16:16:56.363Z,10.70
2019-03-11T16:21:58.742Z,10.94
2019-03-11T16:27:01.241Z,10.89
2019-03-11T16:32:03.728Z,10.51
2019-03-11T16:37:06.171Z,10.35
2019-03-11T16:42:08.667Z,10.25
2019-03-11T16:47:11.142Z,10.28
2019-03-11T16:52:13.644Z,10.40
2019-03-11T16:57:16.118Z,10.20
2019-03-11T17:02:18.581Z,9.97
2019-03-11T17:07:21.061Z,9.73
2019-03-11T17:12:23.568Z,9.54
2019-03-11T17:17:26.072Z,9.49
2019-03-11T17:22:28.523Z,9.52
2019-03-11T17:27:30.986Z,9.51
2019-03-11T17:32:33.453Z,9.37
2019-03-11T17:37:35.933Z,9.27
2019-03-11T17:42:38.391Z,9.24
2019-03-11T17:47:40.862Z,9.27
2019-03-11T17:52:43.355Z,9.44
2019-03-11T17:57:45.829Z,9.39
2019-03-11T18:02:48.325Z,9.36
2019-03-11T18:07:50.798Z,9.42
2019-03-11T18:12:53.262Z,9.46
2019-03-11T18:17:55.726Z,9.39
2019-03-11T18:22:58.250Z,9.33
2019-03-11T18:28:00.744Z,9.13
2019-03-11T18:33:03.181Z,8.97
2019-03-11T18:38:05.678Z,8.87
2019-03-11T18:43:08.164Z,8.92
2019-03-11T18:48:10.646Z,8.90
2019-03-11T18:53:13.186Z,8.87
2019-03-11T18:58:15.636Z,9.02
2019-03-11T19:03:18.073Z,9.02
2019-03-11T19:08:20.561Z,9.03
2019-03-11T19:13:25.780Z,8.91
2019-03-11T19:18:28.232Z,8.69
2019-03-11T19:23:30.718Z,8.67
2019-03-11T19:28:33.183Z,8.51
2019-03-11T19:33:35.675Z,8.49
2019-03-11T19:38:38.144Z,8.54
2019-03-11T19:43:40.698Z,8.69
2019-03-11T19:48:43.614Z,8.69
2019-03-11T19:53:45.606Z,8.71
2019-03-11T19:58:48.127Z,8.82
2019-03-11T20:03:50.554Z,8.94
2019-03-11T20:08:53.135Z,8.95
2019-03-11T20:13:55.557Z,8.94
2019-03-11T20:18:58.121Z,8.95
2019-03-11T20:24:00.665Z,8.96
2019-03-11T20:29:05.999Z,8.97
2019-03-11T20:34:05.613Z,9.01
2019-03-11T20:39:08.088Z,9.03
2019-03-11T20:44:10.660Z,8.97
2019-03-11T20:49:13.093Z,8.96
2019-03-11T20:54:15.588Z,8.83
2019-03-11T20:59:18.064Z,8.68
2019-03-11T21:04:20.630Z,8.50
2019-03-11T21:09:23.052Z,8.34
2019-03-11T21:14:25.513Z,8.14
2019-03-11T21:19:28.143Z,7.97
2019-03-11T21:24:30.759Z,7.92
2019-03-11T21:29:33.312Z,7.84
2019-03-11T21:34:35.735Z,7.80
2019-03-11T21:39:38.266Z,7.75
2019-03-11T21:44:40.761Z,7.69
2019-03-11T21:49:43.327Z,7.64
2019-03-11T21:54:47.563Z,7.69
2019-03-11T21:59:48.390Z,7.64
2019-03-11T22:04:50.818Z,7.70
2019-03-11T22:09:53.294Z,7.73
2019-03-11T22:14:55.746Z,7.77
2019-03-11T22:19:58.215Z,7.83
2019-03-11T22:25:02.438Z,7.70
2019-03-11T22:30:03.146Z,7.56
2019-03-11T22:35:12.835Z,7.53
2019-03-11T22:40:08.059Z,7.44
2019-03-11T22:45:16.656Z,7.44
2019-03-11T22:50:20.964Z,7.52
2019-03-11T22:55:26.140Z,7.69
2019-03-11T23:00:44.790Z,7.74
2019-03-11T23:05:57.693Z,7.85
2019-03-11T23:10:50.960Z,7.92
2019-03-11T23:15:53.411Z,7.92
2019-03-11T23:20:55.875Z,7.88
2019-03-11T23:25:58.334Z,7.75
2019-03-11T23:31:00.812Z,7.81
2019-03-11T23:36:03.290Z,7.69
2019-03-11T23:41:05.752Z,7.74
2019-03-11T23:46:08.203Z,7.70
2019-03-11T23:51:10.671Z,7.65
2019-03-11T23:56:13.127Z,7.75
